createdAt,value
2018-04-17T00:00:05.023Z,98769.70
2018-04-17T00:02:32.676Z,98777.38
2018-04-17T00:05:00.205Z,98775.38
2018-04-17T00:07:27.741Z,98775.06
2018-04-17T00:09:55.213Z,98777.47
2018-04-17T00:12:22.700Z,98768.83
2018-04-17T00:14:50.214Z,98771.97
2018-04-17T00:17:17.706Z,98775.61
2018-04-17T00:19:45.183Z,98779.27
2018-04-17T00:22:12.673Z,98780.69
2018-04-17T00:24:40.145Z,98781.15
2018-04-17T00:27:07.616Z,98786.61
2018-04-17T00:29:35.085Z,98781.85
2018-04-17T00:32:02.583Z,98787.57
2018-04-17T00:34:30.073Z,98785.41
2018-04-17T00:36:57.560Z,98788.55
2018-04-17T00:39:25.046Z,98786.69
2018-04-17T00:41:52.647Z,98791.55
2018-04-17T00:44:20.150Z,98798.58
2018-04-17T00:46:47.609Z,98796.78
2018-04-17T00:49:15.095Z,98802.33
2018-04-17T00:51:42.565Z,98801.70
2018-04-17T00:54:10.123Z,98800.12
2018-04-17T00:56:37.583Z,98803.80
2018-04-17T00:59:05.075Z,98805.72
2018-04-17T01:01:32.566Z,98809.27
2018-04-17T01:04:00.040Z,98801.46
2018-04-17T01:06:27.512Z,98804.61
2018-04-17T01:08:54.997Z,98810.80
2018-04-17T01:11:22.459Z,98812.34
2018-04-17T01:13:49.929Z,98814.57
2018-04-17T01:16:17.512Z,98815.59
2018-04-17T01:18:45.137Z,98817.44
2018-04-17T01:21:12.631Z,98820.20
2018-04-17T01:23:40.138Z,98819.85
2018-04-17T01:26:07.964Z,98817.67
2018-04-17T01:28:35.517Z,98829.30
2018-04-17T01:31:03.012Z,98830.30
2018-04-17T01:33:30.514Z,98826.99
2018-04-17T01:35:58.026Z,98831.16
2018-04-17T01:38:25.540Z,98830.77
2018-04-17T01:40:53.041Z,98835.17
2018-04-17T01:43:20.763Z,98841.84
2018-04-17T01:45:48.234Z,98841.56
2018-04-17T01:48:15.973Z,98844.31
2018-04-17T01:50:43.457Z,98843.89
2018-04-17T01:53:10.952Z,98844.05
2018-04-17T01:55:38.435Z,98842.31
2018-04-17T01:58:05.915Z,98846.30
2018-04-17T02:00:33.397Z,98848.90
2018-04-17T02:03:00.890Z,98852.56
2018-04-17T02:05:28.378Z,98849.52
2018-04-17T02:07:55.902Z,98850.77
2018-04-17T02:10:23.372Z,98851.71
2018-04-17T02:12:51.101Z,98853.51
2018-04-17T02:15:18.592Z,98850.12
2018-04-17T02:17:46.200Z,98859.39
2018-04-17T02:20:13.656Z,98858.01
2018-04-17T02:22:41.146Z,98853.75
2018-04-17T02:25:08.606Z,98852.44
2018-04-17T02:27:36.181Z,98855.09
2018-04-17T02:30:03.664Z,98862.66
2018-04-17T02:32:31.134Z,98858.72
2018-04-17T02:34:58.637Z,98857.89
2018-04-17T02:37:26.104Z,98859.67
2018-04-17T02:39:53.593Z,98861.44
2018-04-17T02:42:21.084Z,98861.45
2018-04-17T02:44:48.746Z,98860.61
2018-04-17T02:47:16.241Z,98870.32
2018-04-17T02:49:43.705Z,98870.34
2018-04-17T02:52:11.213Z,98870.31
2018-04-17T02:54:38.713Z,98878.69
2018-04-17T02:57:06.199Z,98880.06
2018-04-17T02:59:33.717Z,98881.84
2018-04-17T03:02:01.234Z,98879.20
2018-04-17T03:04:28.711Z,98886.30
2018-04-17T03:06:56.199Z,98884.58
2018-04-17T03:09:23.662Z,98891.28
2018-04-17T03:11:51.197Z,98890.40
2018-04-17T03:14:18.684Z,98893.97
2018-04-17T03:16:46.170Z,98896.66
2018-04-17T03:19:13.643Z,98898.88
2018-04-17T03:21:41.146Z,98902.83
2018-04-17T03:24:08.624Z,98904.13
2018-04-17T03:26:36.198Z,98909.95
2018-04-17T03:29:03.792Z,98916.59
2018-04-17T03:31:31.267Z,98911.79
2018-04-17T03:33:58.846Z,98912.27
2018-04-17T03:36:26.358Z,98918.45
2018-04-17T03:38:53.887Z,98918.89
2018-04-17T03:41:21.399Z,98920.70
2018-04-17T03:43:48.861Z,98925.55
2018-04-17T03:46:16.350Z,98932.60
2018-04-17T03:48:43.831Z,98932.70
2018-04-17T03:51:11.315Z,98935.30
2018-04-17T03:53:38.784Z,98935.36
2018-04-17T03:56:06.261Z,98947.68
2018-04-17T03:58:33.774Z,98950.80
2018-04-17T04:01:01.287Z,98945.06
2018-04-17T04:03:28.775Z,98955.16
2018-04-17T04:05:56.268Z,98958.69
2018-04-17T04:08:23.783Z,98964.06
2018-04-17T04:10:51.270Z,98961.28
2018-04-17T04:13:18.735Z,98969.43
2018-04-17T04:15:46.220Z,98964.37
2018-04-17T04:18:25.479Z,98960.55
2018-04-17T04:21:04.764Z,98967.09
2018-04-17T04:23:44.264Z,98965.21
2018-04-17T04:26:24.491Z,98974.31
2018-04-17T04:28:51.967Z,98981.63
2018-04-17T04:31:19.578Z,98984.97
2018-04-17T04:33:47.053Z,98984.39
2018-04-17T04:36:14.541Z,98986.41
2018-04-17T04:38:42.021Z,98995.35
2018-04-17T04:41:09.532Z,98993.77
2018-04-17T04:43:37.159Z,98993.81
2018-04-17T04:46:04.688Z,98999.27
2018-04-17T04:48:32.271Z,98996.55
2018-04-17T04:50:59.827Z,99008.74
2018-04-17T04:53:27.508Z,99003.59
2018-04-17T04:55:55.019Z,99007.06
2018-04-17T04:58:22.490Z,99008.86
2018-04-17T05:00:50.208Z,99017.58
2018-04-17T05:03:17.687Z,99017.77
2018-04-17T05:05:45.335Z,99023.38
2018-04-17T05:08:12.827Z,99029.31
2018-04-17T05:10:40.416Z,99033.01
2018-04-17T05:13:07.894Z,99039.87
2018-04-17T05:15:35.391Z,99039.19
2018-04-17T05:18:02.889Z,99047.39
2018-04-17T05:20:30.538Z,99051.61
2018-04-17T05:22:58.050Z,99057.08
2018-04-17T05:25:25.522Z,99056.64
2018-04-17T05:27:52.984Z,99062.67
2018-04-17T05:30:20.466Z,99061.64
2018-04-17T05:32:47.957Z,99058.05
2018-04-17T05:35:15.512Z,99064.58
2018-04-17T05:37:43.083Z,99071.37
2018-04-17T05:40:10.722Z,99071.30
2018-04-17T05:42:38.442Z,99066.19
2018-04-17T05:45:06.039Z,99067.59
2018-04-17T05:47:33.572Z,99072.81
2018-04-17T05:50:01.040Z,99081.16
2018-04-17T05:52:28.581Z,99080.23
2018-04-17T05:54:56.082Z,99085.52
2018-04-17T05:57:23.603Z,99089.44
2018-04-17T05:59:51.128Z,99094.21
2018-04-17T06:02:18.648Z,99094.87
2018-04-17T06:04:46.136Z,99088.80
2018-04-17T06:07:13.684Z,99087.14
2018-04-17T06:09:41.193Z,99085.48
2018-04-17T06:12:08.739Z,99084.50
2018-04-17T06:14:36.221Z,99083.06
2018-04-17T06:17:03.704Z,99078.89
2018-04-17T06:19:31.176Z,99084.33
2018-04-17T06:21:58.659Z,99092.65
2018-04-17T06:24:26.130Z,99099.52
2018-04-17T06:26:53.623Z,99107.96
2018-04-17T06:29:21.132Z,99109.13
2018-04-17T06:31:48.633Z,99110.73
2018-04-17T06:34:16.153Z,99114.68
2018-04-17T06:36:43.831Z,99113.48
2018-04-17T06:39:11.376Z,99115.71
2018-04-17T06:41:38.916Z,99123.31
2018-04-17T06:44:06.369Z,99120.86
2018-04-17T06:46:33.868Z,99125.77
2018-04-17T06:49:01.397Z,99133.73
2018-04-17T06:51:28.888Z,99134.59
2018-04-17T06:53:56.939Z,99129.33
2018-04-17T06:56:24.420Z,99131.37
2018-04-17T06:58:51.879Z,99130.13
2018-04-17T07:01:19.365Z,99131.69
2018-04-17T07:03:46.847Z,99139.39
2018-04-17T07:06:14.761Z,99136.38
2018-04-17T07:08:42.253Z,99141.66
2018-04-17T07:11:09.716Z,99143.55
2018-04-17T07:13:37.179Z,99148.39
2018-04-17T07:16:04.720Z,99148.25
2018-04-17T07:18:32.198Z,99156.05
2018-04-17T07:20:59.653Z,99156.95
2018-04-17T07:23:27.144Z,99158.72
2018-04-17T07:25:54.618Z,99161.02
2018-04-17T07:28:22.112Z,99160.83
2018-04-17T07:30:49.588Z,99158.51
2018-04-17T07:33:17.178Z,99159.15
2018-04-17T07:35:44.675Z,99159.84
2018-04-17T07:38:12.162Z,99160.98
2018-04-17T07:40:39.641Z,99167.57
2018-04-17T07:43:07.130Z,99165.38
2018-04-17T07:45:34.593Z,99169.53
2018-04-17T07:48:16.915Z,99176.71
2018-04-17T07:50:44.428Z,99181.47
2018-04-17T07:53:12.118Z,99190.78
2018-04-17T07:55:39.628Z,99196.88
2018-04-17T07:58:07.138Z,99196.20
2018-04-17T08:00:34.648Z,99200.30
2018-04-17T08:03:02.156Z,99199.87
2018-04-17T08:05:29.734Z,99195.38
2018-04-17T08:07:57.442Z,99192.05
2018-04-17T08:10:24.903Z,99200.59
2018-04-17T08:12:52.411Z,99203.72
2018-04-17T08:15:19.897Z,99206.03
2018-04-17T08:17:47.581Z,99208.09
2018-04-17T08:20:15.072Z,99213.89
2018-04-17T08:22:42.568Z,99211.16
2018-04-17T08:25:10.221Z,99209.89
2018-04-17T08:27:37.715Z,99209.31
2018-04-17T08:30:05.279Z,99209.23
2018-04-17T08:32:32.906Z,99217.13
2018-04-17T08:35:00.396Z,99213.70
2018-04-17T08:37:27.891Z,99219.70
2018-04-17T08:39:55.450Z,99215.13
2018-04-17T08:42:22.933Z,99219.58
2018-04-17T08:44:50.488Z,99216.13
2018-04-17T08:47:18.178Z,99209.39
2018-04-17T08:49:45.677Z,99205.95
2018-04-17T08:52:13.167Z,99204.41
2018-04-17T08:54:40.827Z,99203.45
2018-04-17T08:57:08.358Z,99205.24
2018-04-17T08:59:35.846Z,99207.14
2018-04-17T09:02:03.363Z,99212.14
2018-04-17T09:04:31.887Z,99210.98
2018-04-17T09:06:59.393Z,99216.02
2018-04-17T09:09:26.881Z,99214.16
2018-04-17T09:11:54.427Z,99210.10
2018-04-17T09:14:21.980Z,99211.39
2018-04-17T09:16:49.471Z,99210.13
2018-04-17T09:19:16.966Z,99215.55
2018-04-17T09:21:44.449Z,99216.05
2018-04-17T09:24:11.923Z,99211.36
2018-04-17T09:26:39.407Z,99211.80
2018-04-17T09:29:07.170Z,99207.99
2018-04-17T09:31:34.734Z,99203.68
2018-04-17T09:34:02.205Z,99214.28
2018-04-17T09:36:29.679Z,99212.71
2018-04-17T09:38:57.142Z,99214.06
2018-04-17T09:41:25.004Z,99205.95
2018-04-17T09:43:52.497Z,99210.28
2018-04-17T09:46:19.996Z,99214.93
2018-04-17T09:48:47.463Z,99213.34
2018-04-17T09:51:14.985Z,99207.35
2018-04-17T09:53:42.444Z,99209.20
2018-04-17T09:56:09.988Z,99214.39
2018-04-17T09:58:37.495Z,99212.64
2018-04-17T10:01:05.005Z,99212.28
2018-04-17T10:03:32.510Z,99214.50
2018-04-17T10:06:00.200Z,99219.12
2018-04-17T10:08:27.689Z,99217.23
2018-04-17T10:10:55.180Z,99217.31
2018-04-17T10:13:22.669Z,99221.77
2018-04-17T10:15:50.176Z,99221.05
2018-04-17T10:18:17.717Z,99215.00
2018-04-17T10:20:45.214Z,99218.69
2018-04-17T10:23:12.699Z,99217.02
2018-04-17T10:25:40.199Z,99217.19
2018-04-17T10:28:07.739Z,99217.58
2018-04-17T10:30:35.363Z,99212.84
2018-04-17T10:33:02.817Z,99211.77
2018-04-17T10:35:30.492Z,99212.83
2018-04-17T10:37:57.976Z,99213.20
2018-04-17T10:40:25.588Z,99214.46
2018-04-17T10:42:53.113Z,99212.94
2018-04-17T10:45:20.797Z,99215.18
2018-04-17T10:47:48.304Z,99211.19
2018-04-17T10:50:15.796Z,99214.38
2018-04-17T10:52:43.317Z,99209.62
2018-04-17T10:55:10.834Z,99206.76
2018-04-17T10:57:38.463Z,99208.44
2018-04-17T11:00:06.041Z,99204.72
2018-04-17T11:02:33.568Z,99208.17
2018-04-17T11:05:01.054Z,99203.88
2018-04-17T11:07:28.523Z,99199.90
2018-04-17T11:09:56.055Z,99204.44
2018-04-17T11:12:23.530Z,99198.30
2018-04-17T11:14:51.202Z,99204.33
2018-04-17T11:17:18.705Z,99204.14
2018-04-17T11:19:46.221Z,99203.02
2018-04-17T11:22:13.908Z,99202.52
2018-04-17T11:24:41.405Z,99195.08
2018-04-17T11:27:08.999Z,99197.31
2018-04-17T11:29:36.505Z,99195.64
2018-04-17T11:32:04.186Z,99198.55
2018-04-17T11:34:31.874Z,99191.01
2018-04-17T11:36:59.819Z,99191.84
2018-04-17T11:39:27.310Z,99187.00
2018-04-17T11:41:54.862Z,99190.41
2018-04-17T11:44:22.505Z,99191.30
2018-04-17T11:46:50.065Z,99177.69
2018-04-17T11:49:17.564Z,99177.82
2018-04-17T11:51:45.108Z,99179.17
2018-04-17T11:54:12.885Z,99180.95
2018-04-17T11:56:40.383Z,99177.94
2018-04-17T11:59:07.901Z,99179.31
2018-04-17T12:01:35.437Z,99177.64
2018-04-17T12:04:02.931Z,99178.41
2018-04-17T12:06:30.501Z,99180.33
2018-04-17T12:08:57.969Z,99177.53
2018-04-17T12:11:25.425Z,99169.19
2018-04-17T12:13:52.920Z,99175.47
2018-04-17T12:16:20.429Z,99177.70
2018-04-17T12:18:47.909Z,99171.30
2018-04-17T12:21:15.416Z,99165.48
2018-04-17T12:23:42.886Z,99177.78
2018-04-17T12:26:10.406Z,99167.17
2018-04-17T12:28:37.959Z,99163.83
2018-04-17T12:31:05.464Z,99160.63
2018-04-17T12:33:33.024Z,99155.37
2018-04-17T12:36:00.773Z,99157.43
2018-04-17T12:38:28.344Z,99152.80
2018-04-17T12:40:58.193Z,99154.89
2018-04-17T12:43:25.669Z,99159.77
2018-04-17T12:45:53.150Z,99146.70
2018-04-17T12:48:20.736Z,99147.25
2018-04-17T12:50:48.250Z,99147.41
2018-04-17T12:53:15.852Z,99144.68
2018-04-17T12:55:43.353Z,99142.12
2018-04-17T12:58:10.896Z,99149.70
2018-04-17T13:00:38.368Z,99146.81
2018-04-17T13:03:05.881Z,99149.59
2018-04-17T13:05:33.372Z,99155.00
2018-04-17T13:08:00.848Z,99151.05
2018-04-17T13:10:28.448Z,99145.22
2018-04-17T13:12:55.973Z,99151.67
2018-04-17T13:15:23.527Z,99150.14
2018-04-17T13:17:51.194Z,99153.09
2018-04-17T13:20:18.712Z,99143.53
2018-04-17T13:22:46.200Z,99151.07
2018-04-17T13:25:13.707Z,99152.70
2018-04-17T13:27:41.190Z,99150.12
2018-04-17T13:30:08.682Z,99144.10
2018-04-17T13:32:36.193Z,99145.55
2018-04-17T13:35:03.693Z,99142.41
2018-04-17T13:37:31.183Z,99137.16
2018-04-17T13:39:58.696Z,99134.05
2018-04-17T13:42:26.256Z,99137.66
2018-04-17T13:44:53.696Z,99142.81
2018-04-17T13:47:21.192Z,99140.02
2018-04-17T13:49:48.673Z,99132.48
2018-04-17T13:52:16.159Z,99130.71
2018-04-17T13:54:43.859Z,99132.33
2018-04-17T13:57:11.643Z,99138.26
2018-04-17T13:59:44.578Z,99133.88
2018-04-17T14:02:12.408Z,99132.59
2018-04-17T14:04:40.012Z,99132.70
2018-04-17T14:07:07.495Z,99138.73
2018-04-17T14:09:35.016Z,99138.70
2018-04-17T14:12:02.497Z,99138.91
2018-04-17T14:14:30.010Z,99132.91
2018-04-17T14:16:57.466Z,99144.02
2018-04-17T14:19:24.930Z,99134.25
2018-04-17T14:21:52.437Z,99136.09
2018-04-17T14:24:19.947Z,99131.27
2018-04-17T14:26:47.425Z,99138.05
2018-04-17T14:29:14.937Z,99130.65
2018-04-17T14:31:42.429Z,99130.41
2018-04-17T14:34:16.123Z,99128.12
2018-04-17T14:36:43.638Z,99126.53
2018-04-17T14:39:11.224Z,99130.34
2018-04-17T14:41:38.719Z,99124.91
2018-04-17T14:44:06.232Z,99125.19
2018-04-17T14:46:33.772Z,99127.26
2018-04-17T14:49:01.992Z,99126.84
2018-04-17T14:51:29.691Z,99126.65
2018-04-17T14:53:57.207Z,99130.78
2018-04-17T14:56:24.797Z,99125.25
2018-04-17T14:58:52.267Z,99122.93
2018-04-17T15:01:19.784Z,99123.08
2018-04-17T15:03:47.273Z,99119.53
2018-04-17T15:06:14.754Z,99126.91
2018-04-17T15:08:42.227Z,99128.55
2018-04-17T15:11:09.743Z,99122.98
2018-04-17T15:13:37.235Z,99119.61
2018-04-17T15:16:04.720Z,99118.55
2018-04-17T15:18:32.195Z,99118.30
2018-04-17T15:20:59.785Z,99114.84
2018-04-17T15:23:27.281Z,99121.30
2018-04-17T15:25:54.763Z,99118.51
2018-04-17T15:28:22.247Z,99106.33
2018-04-17T15:30:49.704Z,99109.16
2018-04-17T15:33:17.227Z,99112.33
2018-04-17T15:35:44.735Z,99110.84
2018-04-17T15:38:12.181Z,99105.43
2018-04-17T15:40:39.841Z,99111.59
2018-04-17T15:43:07.338Z,99107.34
2018-04-17T15:45:34.835Z,99116.99
2018-04-17T15:48:02.411Z,99114.00
2018-04-17T15:50:29.909Z,99119.77
2018-04-17T15:52:57.391Z,99118.00
2018-04-17T15:55:24.858Z,99121.52
2018-04-17T15:57:52.361Z,99115.53
2018-04-17T16:00:19.875Z,99121.44
2018-04-17T16:02:47.415Z,99125.84
2018-04-17T16:05:14.928Z,99125.68
2018-04-17T16:07:42.434Z,99123.21
2018-04-17T16:10:09.904Z,99125.24
2018-04-17T16:12:37.407Z,99124.50
2018-04-17T16:15:04.904Z,99130.00
2018-04-17T16:17:32.460Z,99125.88
2018-04-17T16:20:00.015Z,99121.69
2018-04-17T16:22:27.501Z,99124.05
2018-04-17T16:24:55.007Z,99128.69
2018-04-17T16:27:22.491Z,99128.31
2018-04-17T16:29:49.982Z,99126.09
2018-04-17T16:32:17.505Z,99127.88
2018-04-17T16:34:44.973Z,99125.50
2018-04-17T16:37:12.445Z,99124.28
2018-04-17T16:39:40.001Z,99130.66
2018-04-17T16:42:07.481Z,99133.17
2018-04-17T16:44:34.977Z,99126.31
2018-04-17T16:47:02.487Z,99132.39
2018-04-17T16:49:30.053Z,99131.02
2018-04-17T16:51:57.555Z,99131.92
2018-04-17T16:54:25.061Z,99140.92
2018-04-17T16:56:52.576Z,99133.63
2018-04-17T16:59:20.275Z,99138.42
2018-04-17T17:01:47.751Z,99133.05
2018-04-17T17:04:15.245Z,99142.87
2018-04-17T17:06:42.723Z,99141.19
2018-04-17T17:09:10.219Z,99149.20
2018-04-17T17:11:37.908Z,99147.25
2018-04-17T17:14:05.477Z,99154.52
2018-04-17T17:16:33.254Z,99163.50
2018-04-17T17:19:00.775Z,99165.16
2018-04-17T17:21:28.316Z,99152.65
2018-04-17T17:23:55.786Z,99164.75
2018-04-17T17:26:23.614Z,99169.11
2018-04-17T17:28:51.218Z,99170.59
2018-04-17T17:31:19.846Z,99175.92
2018-04-17T17:33:47.500Z,99185.22
2018-04-17T17:36:15.030Z,99191.23
2018-04-17T17:38:42.537Z,99191.34
2018-04-17T17:41:10.260Z,99197.68
2018-04-17T17:43:37.747Z,99196.19
2018-04-17T17:46:05.272Z,99202.77
2018-04-17T17:48:32.769Z,99211.32
2018-04-17T17:51:00.391Z,99220.64
2018-04-17T17:53:27.867Z,99219.63
2018-04-17T17:55:55.333Z,99222.56
2018-04-17T17:58:22.816Z,99227.54
2018-04-17T18:00:50.301Z,99225.77
2018-04-17T18:03:17.785Z,99231.86
2018-04-17T18:05:45.311Z,99240.72
2018-04-17T18:08:12.818Z,99241.47
2018-04-17T18:10:40.402Z,99250.27
2018-04-17T18:13:07.860Z,99254.93
2018-04-17T18:15:35.502Z,99261.23
2018-04-17T18:18:03.037Z,99267.55
2018-04-17T18:20:30.555Z,99269.37
2018-04-17T18:22:58.138Z,99276.59
2018-04-17T18:25:25.598Z,99284.27
2018-04-17T18:27:53.096Z,99289.83
2018-04-17T18:30:20.688Z,99295.39
2018-04-17T18:32:48.227Z,99297.59
2018-04-17T18:35:15.749Z,99300.90
2018-04-17T18:37:43.284Z,99306.81
2018-04-17T18:40:10.860Z,99311.38
2018-04-17T18:42:38.385Z,99314.63
2018-04-17T18:45:06.835Z,99319.38
2018-04-17T18:47:34.376Z,99323.91
2018-04-17T18:50:01.861Z,99337.07
2018-04-17T18:52:30.491Z,99340.84
2018-04-17T18:54:58.034Z,99336.58
2018-04-17T18:57:27.603Z,99348.45
2018-04-17T18:59:58.317Z,99348.99
2018-04-17T19:02:26.195Z,99362.62
2018-04-17T19:04:55.191Z,99362.06
2018-04-17T19:07:22.739Z,99363.58
2018-04-17T19:09:50.352Z,99363.45
2018-04-17T19:12:17.893Z,99364.22
2018-04-17T19:14:45.375Z,99365.86
2018-04-17T19:17:13.003Z,99370.03
2018-04-17T19:19:40.936Z,99373.47
2018-04-17T19:22:08.594Z,99380.86
2018-04-17T19:24:36.178Z,99372.62
2018-04-17T19:27:05.209Z,99382.91
2018-04-17T19:29:35.981Z,99384.62
2018-04-17T19:32:03.723Z,99383.53
2018-04-17T19:34:36.409Z,99388.12
2018-04-17T19:37:04.541Z,99389.65
2018-04-17T19:39:32.034Z,99390.28
2018-04-17T19:41:59.617Z,99389.47
2018-04-17T19:44:27.120Z,99386.59
2018-04-17T19:46:54.600Z,99390.24
2018-04-17T19:49:22.069Z,99396.95
2018-04-17T19:51:49.570Z,99395.77
2018-04-17T19:54:17.381Z,99402.36
2018-04-17T19:56:44.934Z,99406.98
2018-04-17T19:59:13.345Z,99405.93
2018-04-17T20:01:41.816Z,99411.19
2018-04-17T20:04:09.318Z,99411.09
2018-04-17T20:06:36.826Z,99418.86
2018-04-17T20:09:04.413Z,99419.12
2018-04-17T20:11:31.948Z,99426.03
2018-04-17T20:13:59.453Z,99431.52
2018-04-17T20:16:26.929Z,99433.86
2018-04-17T20:18:54.401Z,99433.86
2018-04-17T20:21:22.309Z,99438.11
2018-04-17T20:23:49.861Z,99430.30
2018-04-17T20:26:17.556Z,99429.57
2018-04-17T20:28:44.992Z,99432.41
2018-04-17T20:31:12.527Z,99434.68
2018-04-17T20:33:40.009Z,99429.06
2018-04-17T20:36:07.501Z,99436.22
2018-04-17T20:38:35.011Z,99432.83
2018-04-17T20:41:02.510Z,99435.97
2018-04-17T20:43:29.984Z,99439.59
2018-04-17T20:45:57.646Z,99441.00
2018-04-17T20:48:25.109Z,99441.59
2018-04-17T20:50:52.600Z,99440.77
2018-04-17T20:53:20.103Z,99439.50
2018-04-17T20:55:47.621Z,99441.03
2018-04-17T20:58:15.164Z,99441.64
2018-04-17T21:00:42.661Z,99438.77
2018-04-17T21:03:10.585Z,99437.73
2018-04-17T21:05:38.191Z,99440.16
2018-04-17T21:08:05.699Z,99448.70
2018-04-17T21:10:33.606Z,99445.70
2018-04-17T21:13:01.099Z,99448.06
2018-04-17T21:15:28.714Z,99442.83
2018-04-17T21:17:57.318Z,99448.19
2018-04-17T21:20:24.789Z,99442.09
2018-04-17T21:22:52.265Z,99443.48
2018-04-17T21:25:19.767Z,99443.58
2018-04-17T21:27:47.269Z,99436.73
2018-04-17T21:30:14.748Z,99440.36
2018-04-17T21:32:42.235Z,99441.04
2018-04-17T21:35:09.703Z,99443.55
2018-04-17T21:37:37.210Z,99451.27
2018-04-17T21:40:04.669Z,99448.96
2018-04-17T21:42:32.157Z,99444.95
2018-04-17T21:44:59.644Z,99457.55
2018-04-17T21:47:27.158Z,99455.90
2018-04-17T21:49:54.677Z,99460.05
2018-04-17T21:52:22.133Z,99463.81
2018-04-17T21:54:49.638Z,99466.20
2018-04-17T21:57:18.284Z,99475.28
2018-04-17T21:59:45.786Z,99477.23
2018-04-17T22:02:13.302Z,99479.94
2018-04-17T22:04:40.778Z,99482.70
2018-04-17T22:07:08.347Z,99486.72
2018-04-17T22:09:35.864Z,99483.63
2018-04-17T22:12:03.347Z,99484.27
2018-04-17T22:14:30.865Z,99486.08
2018-04-17T22:16:58.364Z,99486.89
2018-04-17T22:19:25.841Z,99489.25
2018-04-17T22:21:53.363Z,99493.35
2018-04-17T22:24:20.825Z,99500.22
2018-04-17T22:26:48.322Z,99503.09
2018-04-17T22:29:15.828Z,99496.98
2018-04-17T22:31:43.371Z,99497.97
2018-04-17T22:34:10.838Z,99501.41
2018-04-17T22:36:38.336Z,99498.44
2018-04-17T22:39:06.748Z,99497.31
2018-04-17T22:41:34.259Z,99501.35
2018-04-17T22:44:01.752Z,99501.42
2018-04-17T22:46:29.240Z,99508.59
2018-04-17T22:48:56.771Z,99509.57
2018-04-17T22:51:24.261Z,99509.63
2018-04-17T22:53:51.713Z,99514.18
2018-04-17T22:56:19.228Z,99520.48
2018-04-17T22:58:46.693Z,99519.25
2018-04-17T23:01:14.207Z,99523.27
2018-04-17T23:03:41.693Z,99523.77
2018-04-17T23:06:09.193Z,99520.77
2018-04-17T23:08:36.709Z,99527.86
2018-04-17T23:11:04.193Z,99526.66
2018-04-17T23:13:31.720Z,99528.50
2018-04-17T23:15:59.195Z,99533.41
2018-04-17T23:18:26.662Z,99531.70
2018-04-17T23:20:54.123Z,99535.77
2018-04-17T23:23:21.601Z,99540.27
2018-04-17T23:25:49.081Z,99541.23
2018-04-17T23:28:16.596Z,99546.64
2018-04-17T23:30:44.219Z,99543.63
2018-04-17T23:33:11.726Z,99546.77
2018-04-17T23:35:39.288Z,99547.27
2018-04-17T23:38:06.805Z,99553.50
2018-04-17T23:40:34.400Z,99551.34
2018-04-17T23:43:01.932Z,99554.44
2018-04-17T23:45:29.425Z,99558.44
2018-04-17T23:47:56.968Z,99554.92
2018-04-17T23:50:24.490Z,99551.45
2018-04-17T23:55:25.905Z,99551.63
2018-04-17T23:57:53.399Z,99551.26
